createdAt,value
2023-02-14T00:01:10.626Z,71.27
2023-02-14T00:03:39.417Z,71.31
2023-02-14T00:06:07.960Z,71.50
2023-02-14T00:08:35.791Z,72.00
2023-02-14T00:11:04.309Z,72.55
2023-02-14T00:13:31.674Z,72.61
2023-02-14T00:15:59.037Z,72.41
2023-02-14T00:18:45.386Z,71.74
2023-02-14T00:21:12.717Z,72.29
2023-02-14T00:23:40.074Z,72.23
2023-02-14T00:26:14.193Z,71.76
2023-02-14T00:28:43.398Z,72.34
2023-02-14T00:31:11.151Z,72.59
2023-02-14T00:33:38.572Z,72.39
2023-02-14T00:36:07.533Z,72.57
2023-02-14T00:38:35.238Z,72.84
2023-02-14T00:41:03.210Z,72.55
2023-02-14T00:43:30.796Z,73.05
2023-02-14T00:45:58.106Z,73.20
2023-02-14T00:48:25.660Z,73.63
2023-02-14T00:50:52.986Z,73.86
2023-02-14T00:53:20.501Z,73.35
2023-02-14T00:55:47.848Z,74.11
2023-02-14T00:58:15.564Z,73.71
2023-02-14T01:00:42.885Z,74.48
2023-02-14T01:03:10.246Z,74.61
2023-02-14T01:05:37.512Z,74.53
2023-02-14T01:08:05.419Z,74.63
2023-02-14T01:10:32.695Z,74.35
2023-02-14T01:13:00.004Z,74.34
2023-02-14T01:15:28.718Z,74.10
2023-02-14T01:17:56.145Z,73.95
2023-02-14T01:20:23.376Z,74.65
2023-02-14T01:22:50.646Z,74.49
2023-02-14T01:25:18.163Z,74.66
2023-02-14T01:27:45.501Z,75.17
2023-02-14T01:30:14.551Z,74.51
2023-02-14T01:32:42.474Z,74.57
2023-02-14T01:35:10.467Z,74.20
2023-02-14T01:37:37.797Z,74.04
2023-02-14T01:40:08.332Z,74.36
2023-02-14T01:42:36.246Z,73.98
2023-02-14T01:45:08.931Z,74.41
2023-02-14T01:47:39.277Z,74.37
2023-02-14T01:50:13.885Z,73.93
2023-02-14T01:52:47.965Z,74.64
2023-02-14T01:55:28.612Z,75.02
2023-02-14T01:58:01.542Z,74.97
2023-02-14T02:00:47.594Z,75.25
2023-02-14T02:03:16.808Z,75.07
2023-02-14T02:05:52.585Z,75.12
2023-02-14T02:08:20.414Z,75.51
2023-02-14T02:10:47.616Z,75.73
2023-02-14T02:13:18.047Z,75.58
2023-02-14T02:16:03.355Z,75.57
2023-02-14T02:19:17.275Z,75.89
2023-02-14T02:21:59.680Z,75.56
2023-02-14T02:24:30.003Z,75.25
2023-02-14T02:27:22.055Z,75.24
2023-02-14T02:30:25.152Z,75.42
2023-02-14T02:32:53.665Z,75.70
2023-02-14T02:35:42.015Z,75.89
2023-02-14T02:38:36.893Z,75.47
2023-02-14T02:41:18.573Z,76.14
2023-02-14T02:44:13.053Z,76.17
2023-02-14T02:46:55.665Z,77.15
2023-02-14T02:49:48.314Z,76.69
2023-02-14T02:52:41.642Z,76.22
2023-02-14T02:55:16.407Z,77.10
2023-02-14T02:57:44.473Z,76.17
2023-02-14T03:00:13.690Z,76.73
2023-02-14T03:03:03.753Z,76.61
2023-02-14T03:05:32.355Z,76.84
2023-02-14T03:07:59.780Z,76.72
2023-02-14T03:10:31.805Z,76.53
2023-02-14T03:13:36.778Z,77.05
2023-02-14T03:16:26.167Z,76.63
2023-02-14T03:20:00.471Z,76.97
2023-02-14T03:22:48.498Z,77.08
2023-02-14T03:25:32.288Z,77.26
2023-02-14T03:28:15.182Z,76.84
2023-02-14T03:30:48.548Z,76.81
2023-02-14T03:33:23.193Z,76.97
2023-02-14T03:35:55.249Z,77.42
2023-02-14T03:38:27.527Z,77.76
2023-02-14T03:41:01.935Z,78.52
2023-02-14T03:43:35.917Z,78.37
2023-02-14T03:46:03.272Z,78.28
2023-02-14T03:48:32.311Z,77.91
2023-02-14T03:51:00.657Z,77.20
2023-02-14T03:53:31.020Z,77.27
2023-02-14T03:56:13.390Z,78.18
2023-02-14T03:58:45.188Z,79.30
2023-02-14T04:01:36.170Z,79.81
2023-02-14T04:04:04.677Z,79.07
2023-02-14T04:06:31.969Z,79.07
2023-02-14T04:08:59.399Z,79.09
2023-02-14T04:11:27.270Z,78.65
2023-02-14T04:13:54.810Z,78.39
2023-02-14T04:16:22.147Z,78.19
2023-02-14T04:19:08.078Z,77.81
2023-02-14T04:21:35.375Z,77.59
2023-02-14T04:24:02.711Z,77.02
2023-02-14T04:26:30.129Z,77.76
2023-02-14T04:28:57.558Z,77.53
2023-02-14T04:31:24.971Z,77.56
2023-02-14T04:33:52.344Z,77.51
2023-02-14T04:36:19.686Z,77.57
2023-02-14T04:38:46.957Z,77.97
2023-02-14T04:41:14.316Z,78.06
2023-02-14T04:43:43.106Z,78.22
2023-02-14T04:46:10.574Z,78.02
2023-02-14T04:48:37.902Z,77.70
2023-02-14T04:51:05.359Z,78.13
2023-02-14T04:53:32.618Z,78.61
2023-02-14T04:56:00.002Z,77.72
2023-02-14T04:58:27.465Z,77.66
2023-02-14T05:00:54.809Z,79.02
2023-02-14T05:03:22.108Z,79.30
2023-02-14T05:05:49.501Z,78.42
2023-02-14T05:08:17.049Z,77.91
2023-02-14T05:10:44.326Z,77.88
2023-02-14T05:13:11.719Z,77.83
2023-02-14T05:15:38.960Z,78.36
2023-02-14T05:18:06.447Z,77.83
2023-02-14T05:20:34.223Z,77.86
2023-02-14T05:23:06.346Z,77.54
2023-02-14T05:25:34.356Z,77.69
2023-02-14T05:28:01.877Z,78.53
2023-02-14T05:30:30.339Z,78.69
2023-02-14T05:32:57.787Z,78.81
2023-02-14T05:35:25.202Z,78.76
2023-02-14T05:37:52.501Z,78.41
2023-02-14T05:40:19.918Z,78.08
2023-02-14T05:42:47.153Z,77.80
2023-02-14T05:45:14.713Z,77.70
2023-02-14T05:47:42.097Z,77.65
2023-02-14T05:50:09.525Z,78.19
2023-02-14T05:52:37.792Z,78.58
2023-02-14T05:55:05.632Z,79.90
2023-02-14T05:57:36.030Z,79.08
2023-02-14T06:00:06.540Z,80.45
2023-02-14T06:02:39.750Z,80.26
2023-02-14T06:05:07.712Z,81.22
2023-02-14T06:07:35.152Z,81.25
2023-02-14T06:10:02.488Z,81.30
2023-02-14T06:12:32.973Z,81.07
2023-02-14T06:15:00.357Z,81.91
2023-02-14T06:17:27.738Z,81.58
2023-02-14T06:19:54.995Z,81.15
2023-02-14T06:22:22.316Z,81.26
2023-02-14T06:24:50.014Z,80.82
2023-02-14T06:27:17.320Z,81.29
2023-02-14T06:29:44.683Z,80.91
2023-02-14T06:32:12.132Z,80.89
2023-02-14T06:34:40.918Z,81.55
2023-02-14T06:37:08.241Z,80.71
2023-02-14T06:39:35.593Z,80.69
2023-02-14T06:42:02.941Z,80.92
2023-02-14T06:44:30.446Z,80.47
2023-02-14T06:46:57.724Z,80.94
2023-02-14T06:49:25.158Z,80.68
2023-02-14T06:51:52.602Z,80.09
2023-02-14T06:54:19.886Z,79.59
2023-02-14T06:56:47.480Z,80.10
2023-02-14T06:59:14.825Z,80.77
2023-02-14T07:01:42.174Z,81.24
2023-02-14T07:04:09.676Z,81.66
2023-02-14T07:06:37.753Z,81.27
2023-02-14T07:09:05.574Z,80.65
2023-02-14T07:11:32.979Z,80.92
2023-02-14T07:14:00.296Z,81.95
2023-02-14T07:16:27.672Z,81.84
2023-02-14T07:18:54.987Z,82.13
2023-02-14T07:21:22.324Z,82.54
2023-02-14T07:23:50.195Z,82.09
2023-02-14T07:26:18.344Z,81.74
2023-02-14T07:28:46.712Z,81.88
2023-02-14T07:31:14.192Z,81.41
2023-02-14T07:33:41.817Z,80.91
2023-02-14T07:36:09.675Z,80.59
2023-02-14T07:38:37.269Z,81.74
2023-02-14T07:41:04.694Z,82.02
2023-02-14T07:43:34.490Z,81.70
2023-02-14T07:46:02.468Z,82.04
2023-02-14T07:48:31.953Z,82.43
2023-02-14T07:51:01.863Z,81.16
2023-02-14T07:53:29.272Z,80.24
2023-02-14T07:55:56.855Z,80.02
2023-02-14T07:58:24.141Z,80.73
2023-02-14T08:00:51.477Z,80.38
2023-02-14T08:03:19.134Z,79.98
2023-02-14T08:05:57.056Z,79.47
2023-02-14T08:08:28.908Z,79.54
2023-02-14T08:10:57.001Z,78.56
2023-02-14T08:13:24.345Z,78.71
2023-02-14T08:16:07.740Z,78.78
2023-02-14T08:18:37.942Z,78.99
2023-02-14T08:21:05.861Z,78.54
2023-02-14T08:23:33.879Z,78.87
2023-02-14T08:26:01.664Z,79.41
2023-02-14T08:28:29.253Z,79.20
2023-02-14T08:30:56.668Z,79.37
2023-02-14T08:33:24.057Z,79.35
2023-02-14T08:35:52.210Z,79.54
2023-02-14T08:38:19.599Z,79.73
2023-02-14T08:40:47.381Z,79.45
2023-02-14T08:43:15.349Z,79.72
2023-02-14T08:45:43.019Z,80.18
2023-02-14T08:48:12.241Z,79.99
2023-02-14T08:50:40.285Z,79.29
2023-02-14T08:53:12.257Z,79.55
2023-02-14T08:55:40.228Z,79.60
2023-02-14T08:58:07.928Z,79.03
2023-02-14T09:00:35.560Z,79.20
2023-02-14T09:03:03.032Z,78.35
2023-02-14T09:05:32.018Z,77.75
2023-02-14T09:07:59.674Z,76.61
2023-02-14T09:10:28.559Z,77.68
2023-02-14T09:12:58.560Z,76.88
2023-02-14T09:15:26.435Z,76.75
2023-02-14T09:17:53.743Z,76.98
2023-02-14T09:20:25.274Z,76.63
2023-02-14T09:22:55.860Z,76.14
2023-02-14T09:25:26.254Z,75.69
2023-02-14T09:27:53.694Z,75.05
2023-02-14T09:30:21.232Z,74.02
2023-02-14T09:32:48.887Z,73.58
2023-02-14T09:35:34.710Z,74.16
2023-02-14T09:38:18.310Z,73.84
2023-02-14T09:40:47.054Z,74.01
2023-02-14T09:43:24.691Z,73.84
2023-02-14T09:45:54.864Z,73.57
2023-02-14T09:48:32.470Z,73.51
2023-02-14T09:51:03.361Z,72.84
2023-02-14T09:53:35.092Z,72.94
2023-02-14T09:56:21.151Z,72.77
2023-02-14T09:59:07.368Z,73.15
2023-02-14T10:01:43.714Z,72.59
2023-02-14T10:04:23.018Z,72.18
2023-02-14T10:07:01.732Z,71.03
2023-02-14T10:09:43.095Z,70.13
2023-02-14T10:12:16.666Z,70.04
2023-02-14T10:14:44.114Z,70.00
2023-02-14T10:17:25.324Z,69.43
2023-02-14T10:19:56.649Z,68.63
2023-02-14T10:22:30.225Z,68.49
2023-02-14T10:25:14.425Z,68.98
2023-02-14T10:27:47.286Z,68.39
2023-02-14T10:30:21.573Z,67.99
2023-02-14T10:32:53.583Z,67.61
2023-02-14T10:35:44.116Z,67.33
2023-02-14T10:38:20.602Z,67.03
2023-02-14T10:41:10.151Z,66.68
2023-02-14T10:43:43.747Z,66.01
2023-02-14T10:46:21.268Z,65.93
2023-02-14T10:49:13.402Z,65.96
2023-02-14T10:51:51.232Z,65.99
2023-02-14T10:54:25.977Z,65.84
2023-02-14T10:56:58.699Z,65.90
2023-02-14T10:59:39.780Z,65.25
2023-02-14T11:02:11.155Z,65.15
2023-02-14T11:04:38.495Z,65.55
2023-02-14T11:07:13.081Z,65.44
2023-02-14T11:09:40.337Z,64.11
2023-02-14T11:12:08.724Z,64.36
2023-02-14T11:14:40.563Z,64.28
2023-02-14T11:17:28.153Z,63.45
2023-02-14T11:20:02.590Z,62.99
2023-02-14T11:22:31.282Z,63.54
2023-02-14T11:25:21.508Z,63.96
2023-02-14T11:28:00.994Z,64.06
2023-02-14T11:30:33.450Z,63.86
2023-02-14T11:33:01.109Z,63.32
2023-02-14T11:35:34.550Z,62.97
2023-02-14T11:38:06.704Z,63.21
2023-02-14T11:40:38.932Z,62.93
2023-02-14T11:43:14.622Z,63.10
2023-02-14T11:45:49.447Z,62.51
2023-02-14T11:48:31.434Z,62.79
2023-02-14T11:51:15.912Z,62.42
2023-02-14T11:53:56.343Z,62.40
2023-02-14T11:56:24.327Z,61.36
2023-02-14T11:59:03.779Z,61.34
2023-02-14T12:01:33.918Z,60.94
2023-02-14T12:04:02.155Z,60.61
2023-02-14T12:06:32.478Z,60.65
2023-02-14T12:09:35.173Z,60.73
2023-02-14T12:12:05.020Z,60.54
2023-02-14T12:14:34.464Z,60.05
2023-02-14T12:17:05.818Z,59.10
2023-02-14T12:19:41.167Z,58.97
2023-02-14T12:22:13.298Z,58.90
2023-02-14T12:25:07.576Z,58.58
2023-02-14T12:27:48.459Z,58.48
2023-02-14T12:30:21.367Z,58.07
2023-02-14T12:32:51.312Z,57.22
2023-02-14T12:35:25.815Z,56.12
2023-02-14T12:38:19.346Z,56.44
2023-02-14T12:41:11.882Z,57.34
2023-02-14T12:43:50.875Z,57.17
2023-02-14T12:46:37.079Z,56.18
2023-02-14T12:49:36.369Z,55.71
2023-02-14T12:52:25.475Z,55.82
2023-02-14T12:54:55.762Z,55.68
2023-02-14T12:57:48.076Z,55.76
2023-02-14T13:00:33.997Z,56.00
2023-02-14T13:03:14.679Z,55.53
2023-02-14T13:05:48.250Z,55.20
2023-02-14T13:08:49.374Z,54.05
2023-02-14T13:11:41.054Z,53.65
2023-02-14T13:14:29.616Z,52.99
2023-02-14T13:17:00.860Z,53.08
2023-02-14T13:19:31.228Z,52.37
2023-02-14T13:21:59.906Z,52.38
2023-02-14T13:24:36.813Z,52.24
2023-02-14T13:27:07.415Z,52.34
2023-02-14T13:29:43.275Z,51.69
2023-02-14T13:32:13.305Z,51.16
2023-02-14T13:34:45.047Z,50.57
2023-02-14T13:37:16.016Z,50.14
2023-02-14T13:39:47.229Z,50.13
2023-02-14T13:42:52.642Z,49.91
2023-02-14T13:45:35.303Z,50.04
2023-02-14T13:48:11.122Z,48.92
2023-02-14T13:51:05.626Z,48.60
2023-02-14T13:53:40.200Z,48.25
2023-02-14T13:56:15.336Z,48.48
2023-02-14T13:58:51.127Z,47.76
2023-02-14T14:01:42.922Z,47.24
2023-02-14T14:04:28.826Z,46.60
2023-02-14T14:07:05.347Z,46.59
2023-02-14T14:09:42.004Z,45.55
2023-02-14T14:12:25.585Z,45.98
2023-02-14T14:15:05.767Z,45.53
2023-02-14T14:17:39.419Z,45.09
2023-02-14T14:20:15.781Z,45.08
2023-02-14T14:22:53.733Z,45.06
2023-02-14T14:25:41.118Z,44.73
2023-02-14T14:28:13.350Z,45.13
2023-02-14T14:30:44.747Z,44.80
2023-02-14T14:33:25.979Z,44.31
2023-02-14T14:36:08.467Z,44.23
2023-02-14T14:38:47.189Z,43.84
2023-02-14T14:41:14.591Z,43.03
2023-02-14T14:43:42.352Z,43.20
2023-02-14T14:46:12.645Z,43.50
2023-02-14T14:48:40.491Z,44.53
2023-02-14T14:51:09.868Z,45.03
2023-02-14T14:53:44.541Z,44.62
2023-02-14T14:56:14.356Z,44.90
2023-02-14T14:58:42.111Z,45.64
2023-02-14T15:01:36.436Z,45.61
2023-02-14T15:04:17.262Z,45.13
2023-02-14T15:06:45.437Z,44.53
2023-02-14T15:09:45.079Z,44.58
2023-02-14T15:12:39.971Z,43.99
2023-02-14T15:15:10.119Z,43.75
2023-02-14T15:17:37.795Z,43.92
2023-02-14T15:20:08.402Z,44.17
2023-02-14T15:22:45.613Z,43.94
2023-02-14T15:25:21.226Z,43.85
2023-02-14T15:27:48.711Z,43.70
2023-02-14T15:30:19.414Z,43.43
2023-02-14T15:32:48.262Z,44.02
2023-02-14T15:35:17.579Z,43.86
2023-02-14T15:37:46.039Z,43.47
2023-02-14T15:40:25.090Z,43.44
2023-02-14T15:42:59.052Z,43.15
2023-02-14T15:45:27.687Z,43.03
2023-02-14T15:47:57.896Z,43.57
2023-02-14T15:50:27.979Z,43.41
2023-02-14T15:53:27.896Z,43.99
2023-02-14T15:56:05.791Z,44.52
2023-02-14T15:58:33.649Z,45.00
2023-02-14T16:01:01.495Z,45.38
2023-02-14T16:03:37.054Z,45.07
2023-02-14T16:06:07.483Z,44.90
2023-02-14T16:08:37.341Z,44.82
2023-02-14T16:11:07.159Z,44.85
2023-02-14T16:13:36.803Z,45.02
2023-02-14T16:16:06.741Z,44.73
2023-02-14T16:18:48.198Z,45.07
2023-02-14T16:21:33.240Z,44.80
2023-02-14T16:24:09.361Z,45.61
2023-02-14T16:26:39.318Z,45.42
2023-02-14T16:29:08.500Z,45.18
2023-02-14T16:32:15.195Z,45.15
2023-02-14T16:34:42.258Z,45.33
2023-02-14T16:37:19.509Z,45.26
2023-02-14T16:39:47.117Z,44.98
2023-02-14T16:42:17.008Z,45.34
2023-02-14T16:44:45.769Z,44.88
2023-02-14T16:47:14.020Z,45.35
2023-02-14T16:49:41.984Z,45.15
2023-02-14T16:52:35.535Z,45.04
2023-02-14T16:55:02.820Z,45.33
2023-02-14T16:57:33.397Z,45.77
2023-02-14T17:00:01.363Z,45.21
2023-02-14T17:02:28.846Z,45.60
2023-02-14T17:04:56.506Z,45.44
2023-02-14T17:07:23.905Z,46.58
2023-02-14T17:09:55.538Z,46.39
2023-02-14T17:12:25.634Z,45.88
2023-02-14T17:14:55.732Z,45.68
2023-02-14T17:17:22.965Z,46.40
2023-02-14T17:19:52.654Z,46.14
2023-02-14T17:22:20.671Z,46.96
2023-02-14T17:24:48.144Z,47.14
2023-02-14T17:27:15.587Z,46.97
2023-02-14T17:29:42.888Z,47.36
2023-02-14T17:32:14.088Z,47.11
2023-02-14T17:34:41.709Z,47.31
2023-02-14T17:37:09.098Z,47.14
2023-02-14T17:39:36.444Z,47.47
2023-02-14T17:42:03.865Z,47.59
2023-02-14T17:44:36.011Z,47.91
2023-02-14T17:47:04.917Z,48.29
2023-02-14T17:49:32.470Z,47.87
2023-02-14T17:51:59.749Z,48.03
2023-02-14T17:54:26.984Z,48.42
2023-02-14T17:56:54.595Z,48.29
2023-02-14T17:59:21.979Z,48.86
2023-02-14T18:01:50.131Z,48.74
2023-02-14T18:04:17.432Z,48.68
2023-02-14T18:06:44.834Z,48.39
2023-02-14T18:09:12.166Z,48.85
2023-02-14T18:11:40.414Z,49.29
2023-02-14T18:14:08.370Z,49.38
2023-02-14T18:16:38.038Z,49.79
2023-02-14T18:19:06.844Z,49.76
2023-02-14T18:21:36.041Z,49.76
2023-02-14T18:24:04.025Z,49.77
2023-02-14T18:26:31.551Z,50.23
2023-02-14T18:28:59.341Z,50.33
2023-02-14T18:31:26.787Z,50.27
2023-02-14T18:33:55.096Z,50.40
2023-02-14T18:36:24.349Z,51.48
2023-02-14T18:38:52.040Z,51.63
2023-02-14T18:41:19.828Z,51.45
2023-02-14T18:43:48.929Z,51.89
2023-02-14T18:46:27.476Z,52.80
2023-02-14T18:48:56.241Z,53.01
2023-02-14T18:51:30.062Z,53.15
2023-02-14T18:53:59.558Z,53.36
2023-02-14T18:56:29.915Z,53.60
2023-02-14T18:59:02.515Z,53.22
2023-02-14T19:01:36.838Z,54.84
2023-02-14T19:04:07.763Z,55.12
2023-02-14T19:06:35.942Z,55.18
2023-02-14T19:09:04.100Z,55.41
2023-02-14T19:11:31.791Z,55.13
2023-02-14T19:14:00.310Z,55.14
2023-02-14T19:16:32.414Z,55.33
2023-02-14T19:19:02.513Z,56.20
2023-02-14T19:21:31.321Z,56.15
2023-02-14T19:23:58.933Z,56.30
2023-02-14T19:26:29.625Z,56.23
2023-02-14T19:28:59.480Z,56.56
2023-02-14T19:31:27.991Z,57.14
2023-02-14T19:33:55.558Z,56.79
2023-02-14T19:36:23.600Z,56.73
2023-02-14T19:38:52.895Z,57.02
2023-02-14T19:41:26.148Z,57.00
2023-02-14T19:43:56.251Z,56.87
2023-02-14T19:46:24.413Z,56.56
2023-02-14T19:48:52.292Z,56.25
2023-02-14T19:51:25.804Z,57.02
2023-02-14T19:53:55.467Z,57.32
2023-02-14T19:56:25.205Z,58.00
2023-02-14T19:58:53.098Z,57.96
2023-02-14T20:01:26.169Z,57.31
2023-02-14T20:03:53.632Z,57.10
2023-02-14T20:06:22.185Z,56.86
2023-02-14T20:08:50.011Z,56.96
2023-02-14T20:11:36.340Z,57.27
2023-02-14T20:14:04.860Z,56.99
2023-02-14T20:16:33.888Z,57.14
2023-02-14T20:19:07.945Z,56.88
2023-02-14T20:21:37.953Z,56.54
2023-02-14T20:24:06.185Z,56.19
2023-02-14T20:26:35.016Z,56.06
2023-02-14T20:29:04.208Z,56.51
2023-02-14T20:31:33.209Z,56.64
2023-02-14T20:34:00.987Z,56.40
2023-02-14T20:36:28.971Z,55.98
2023-02-14T20:38:57.192Z,56.05
2023-02-14T20:41:26.157Z,56.15
2023-02-14T20:43:56.571Z,56.65
2023-02-14T20:46:27.112Z,56.83
2023-02-14T20:48:54.551Z,56.60
2023-02-14T20:51:22.842Z,57.25
2023-02-14T20:53:51.198Z,56.86
2023-02-14T20:56:19.197Z,56.98
2023-02-14T20:58:46.580Z,57.25
2023-02-14T21:01:16.484Z,57.15
2023-02-14T21:03:50.420Z,57.64
2023-02-14T21:06:19.680Z,58.13
2023-02-14T21:08:49.503Z,58.13
2023-02-14T21:11:18.529Z,58.58
2023-02-14T21:13:46.432Z,58.71
2023-02-14T21:16:16.008Z,58.46
2023-02-14T21:18:47.982Z,58.54
2023-02-14T21:21:19.134Z,58.60
2023-02-14T21:23:50.289Z,58.58
2023-02-14T21:26:17.912Z,58.98
2023-02-14T21:28:45.492Z,59.47
2023-02-14T21:31:15.882Z,59.39
2023-02-14T21:33:43.381Z,59.90
2023-02-14T21:36:15.818Z,60.05
2023-02-14T21:38:44.012Z,60.19
2023-02-14T21:41:17.595Z,60.11
2023-02-14T21:43:46.446Z,60.43
2023-02-14T21:46:16.323Z,60.57
2023-02-14T21:49:02.798Z,61.17
2023-02-14T21:51:31.348Z,61.65
2023-02-14T21:54:01.659Z,61.23
2023-02-14T21:56:29.063Z,61.73
2023-02-14T21:58:56.793Z,61.80
2023-02-14T22:01:26.425Z,62.43
2023-02-14T22:03:54.417Z,62.89
2023-02-14T22:06:22.335Z,62.33
2023-02-14T22:08:54.314Z,61.58
2023-02-14T22:11:22.322Z,61.82
2023-02-14T22:13:49.735Z,62.13
2023-02-14T22:16:18.996Z,61.57
2023-02-14T22:18:47.963Z,61.68
2023-02-14T22:21:24.194Z,61.80
2023-02-14T22:23:51.825Z,62.17
2023-02-14T22:26:19.112Z,62.54
2023-02-14T22:28:47.912Z,63.24
2023-02-14T22:31:17.254Z,63.82
2023-02-14T22:33:45.131Z,64.23
2023-02-14T22:36:12.793Z,64.60
2023-02-14T22:38:40.655Z,64.63
2023-02-14T22:41:12.188Z,64.70
2023-02-14T22:43:40.094Z,64.80
2023-02-14T22:46:09.827Z,65.14
2023-02-14T22:48:38.126Z,65.64
2023-02-14T22:51:08.504Z,65.75
2023-02-14T22:53:36.000Z,65.88
2023-02-14T22:56:20.727Z,65.60
2023-02-14T22:58:48.591Z,65.98
2023-02-14T23:01:17.519Z,66.05
2023-02-14T23:03:45.471Z,66.14
2023-02-14T23:06:13.729Z,66.76
2023-02-14T23:08:43.005Z,66.73
2023-02-14T23:11:12.830Z,67.07
2023-02-14T23:13:59.272Z,67.04
2023-02-14T23:16:46.006Z,67.28
2023-02-14T23:19:34.080Z,67.27
2023-02-14T23:22:05.168Z,67.35
2023-02-14T23:24:32.525Z,67.80
2023-02-14T23:27:00.099Z,68.31
2023-02-14T23:29:27.452Z,69.52
2023-02-14T23:31:55.307Z,69.45
2023-02-14T23:34:26.629Z,69.64
2023-02-14T23:36:53.969Z,69.02
2023-02-14T23:39:21.336Z,69.17
2023-02-14T23:41:48.686Z,69.18
2023-02-14T23:44:19.877Z,69.47
2023-02-14T23:46:49.097Z,69.50
2023-02-14T23:49:17.028Z,69.16
2023-02-14T23:51:45.725Z,69.32
2023-02-14T23:54:13.586Z,69.59
2023-02-14T23:56:41.179Z,69.07
2023-02-14T23:59:09.345Z,69.67
